sensor_id;sensor_type;location;lat;lon;timestamp;temperature;humidity
69503;SHT31;56704;54.242;12.442;2022-08-21T00:01:26;18.68;74.92
69503;SHT31;56704;54.242;12.442;2022-08-21T00:03:54;18.79;74.81
69503;SHT31;56704;54.242;12.442;2022-08-21T00:06:21;18.84;74.74
69503;SHT31;56704;54.242;12.442;2022-08-21T00:08:49;18.87;74.70
69503;SHT31;56704;54.242;12.442;2022-08-21T00:11:17;18.91;74.63
69503;SHT31;56704;54.242;12.442;2022-08-21T00:13:44;18.91;74.79
69503;SHT31;56704;54.242;12.442;2022-08-21T00:16:10;18.91;74.86
69503;SHT31;56704;54.242;12.442;2022-08-21T00:18:37;18.89;74.86
69503;SHT31;56704;54.242;12.442;2022-08-21T00:21:04;18.85;74.91
69503;SHT31;56704;54.242;12.442;2022-08-21T00:23:33;18.78;75.21
69503;SHT31;56704;54.242;12.442;2022-08-21T00:26:00;18.74;75.26
69503;SHT31;56704;54.242;12.442;2022-08-21T00:28:28;18.69;75.61
69503;SHT31;56704;54.242;12.442;2022-08-21T00:30:54;18.65;75.45
69503;SHT31;56704;54.242;12.442;2022-08-21T00:33:22;18.56;75.40
69503;SHT31;56704;54.242;12.442;2022-08-21T00:35:48;18.48;75.79
69503;SHT31;56704;54.242;12.442;2022-08-21T00:38:15;18.46;75.98
69503;SHT31;56704;54.242;12.442;2022-08-21T00:40:46;18.46;75.65
69503;SHT31;56704;54.242;12.442;2022-08-21T00:43:16;18.48;75.62
69503;SHT31;56704;54.242;12.442;2022-08-21T00:45:45;18.43;75.60
69503;SHT31;56704;54.242;12.442;2022-08-21T00:48:12;18.40;75.58
69503;SHT31;56704;54.242;12.442;2022-08-21T00:50:43;18.32;75.73
69503;SHT31;56704;54.242;12.442;2022-08-21T00:53:11;18.26;75.84
69503;SHT31;56704;54.242;12.442;2022-08-21T00:55:39;18.20;76.16
69503;SHT31;56704;54.242;12.442;2022-08-21T00:58:08;18.13;76.14
69503;SHT31;56704;54.242;12.442;2022-08-21T01:00:39;18.10;76.08
69503;SHT31;56704;54.242;12.442;2022-08-21T01:03:10;18.08;76.18
69503;SHT31;56704;54.242;12.442;2022-08-21T01:05:37;18.02;76.06
69503;SHT31;56704;54.242;12.442;2022-08-21T01:08:05;17.98;76.08
69503;SHT31;56704;54.242;12.442;2022-08-21T01:10:33;17.95;76.11
69503;SHT31;56704;54.242;12.442;2022-08-21T01:13:01;17.99;76.09
69503;SHT31;56704;54.242;12.442;2022-08-21T01:15:32;18.00;76.24
69503;SHT31;56704;54.242;12.442;2022-08-21T01:18:00;17.93;76.19
69503;SHT31;56704;54.242;12.442;2022-08-21T01:20:28;17.89;76.39
69503;SHT31;56704;54.242;12.442;2022-08-21T01:22:56;17.88;76.40
69503;SHT31;56704;54.242;12.442;2022-08-21T01:25:23;17.85;76.55
69503;SHT31;56704;54.242;12.442;2022-08-21T01:27:50;17.85;76.48
69503;SHT31;56704;54.242;12.442;2022-08-21T01:30:20;17.85;76.57
69503;SHT31;56704;54.242;12.442;2022-08-21T01:32:47;17.88;76.56
69503;SHT31;56704;54.242;12.442;2022-08-21T01:35:16;17.85;76.58
69503;SHT31;56704;54.242;12.442;2022-08-21T01:37:44;17.82;76.62
69503;SHT31;56704;54.242;12.442;2022-08-21T01:40:13;17.78;76.81
69503;SHT31;56704;54.242;12.442;2022-08-21T01:42:41;17.72;76.97
69503;SHT31;56704;54.242;12.442;2022-08-21T01:45:09;17.74;76.78
69503;SHT31;56704;54.242;12.442;2022-08-21T01:47:36;17.72;76.82
69503;SHT31;56704;54.242;12.442;2022-08-21T01:50:04;17.72;76.62
69503;SHT31;56704;54.242;12.442;2022-08-21T01:52:31;17.68;76.67
69503;SHT31;56704;54.242;12.442;2022-08-21T01:54:58;17.64;76.76
69503;SHT31;56704;54.242;12.442;2022-08-21T01:57:26;17.58;76.85
69503;SHT31;56704;54.242;12.442;2022-08-21T01:59:53;17.54;76.92
69503;SHT31;56704;54.242;12.442;2022-08-21T02:02:20;17.49;77.04
69503;SHT31;56704;54.242;12.442;2022-08-21T02:04:47;17.42;77.07
69503;SHT31;56704;54.242;12.442;2022-08-21T02:07:13;17.34;77.22
69503;SHT31;56704;54.242;12.442;2022-08-21T02:09:40;17.27;77.63
69503;SHT31;56704;54.242;12.442;2022-08-21T02:12:07;17.24;77.88
69503;SHT31;56704;54.242;12.442;2022-08-21T02:14:35;17.17;78.03
69503;SHT31;56704;54.242;12.442;2022-08-21T02:17:03;17.11;78.31
69503;SHT31;56704;54.242;12.442;2022-08-21T02:19:29;17.04;78.55
69503;SHT31;56704;54.242;12.442;2022-08-21T02:21:56;17.02;78.81
69503;SHT31;56704;54.242;12.442;2022-08-21T02:24:22;16.96;79.04
69503;SHT31;56704;54.242;12.442;2022-08-21T02:26:49;16.93;79.27
69503;SHT31;56704;54.242;12.442;2022-08-21T02:29:15;16.90;79.81
69503;SHT31;56704;54.242;12.442;2022-08-21T02:31:43;16.86;80.20
69503;SHT31;56704;54.242;12.442;2022-08-21T02:34:10;16.81;80.38
69503;SHT31;56704;54.242;12.442;2022-08-21T02:36:36;16.83;80.93
69503;SHT31;56704;54.242;12.442;2022-08-21T02:39:03;16.79;81.13
69503;SHT31;56704;54.242;12.442;2022-08-21T02:41:29;16.75;81.12
69503;SHT31;56704;54.242;12.442;2022-08-21T02:43:56;16.75;81.44
69503;SHT31;56704;54.242;12.442;2022-08-21T02:46:23;16.73;81.58
69503;SHT31;56704;54.242;12.442;2022-08-21T02:48:51;16.73;81.74
69503;SHT31;56704;54.242;12.442;2022-08-21T02:51:19;16.73;81.81
69503;SHT31;56704;54.242;12.442;2022-08-21T02:53:48;16.73;81.75
69503;SHT31;56704;54.242;12.442;2022-08-21T02:56:17;16.70;81.71
69503;SHT31;56704;54.242;12.442;2022-08-21T02:58:46;16.69;81.93
69503;SHT31;56704;54.242;12.442;2022-08-21T03:01:14;16.68;81.97
69503;SHT31;56704;54.242;12.442;2022-08-21T03:03:43;16.70;82.09
69503;SHT31;56704;54.242;12.442;2022-08-21T03:06:13;16.72;81.97
69503;SHT31;56704;54.242;12.442;2022-08-21T03:08:40;16.79;82.13
69503;SHT31;56704;54.242;12.442;2022-08-21T03:11:07;16.81;82.06
69503;SHT31;56704;54.242;12.442;2022-08-21T03:13:34;16.86;81.82
69503;SHT31;56704;54.242;12.442;2022-08-21T03:16:01;16.90;81.94
69503;SHT31;56704;54.242;12.442;2022-08-21T03:18:27;16.94;81.81
69503;SHT31;56704;54.242;12.442;2022-08-21T03:20:54;16.97;81.84
69503;SHT31;56704;54.242;12.442;2022-08-21T03:23:22;17.03;81.71
69503;SHT31;56704;54.242;12.442;2022-08-21T03:25:49;17.07;81.71
69503;SHT31;56704;54.242;12.442;2022-08-21T03:28:18;17.08;81.55
69503;SHT31;56704;54.242;12.442;2022-08-21T03:30:46;17.10;81.64
69503;SHT31;56704;54.242;12.442;2022-08-21T03:33:13;17.11;81.53
69503;SHT31;56704;54.242;12.442;2022-08-21T03:35:41;17.07;81.46
69503;SHT31;56704;54.242;12.442;2022-08-21T03:38:07;17.08;81.34
69503;SHT31;56704;54.242;12.442;2022-08-21T03:40:35;17.08;81.12
69503;SHT31;56704;54.242;12.442;2022-08-21T03:43:02;17.06;80.94
69503;SHT31;56704;54.242;12.442;2022-08-21T03:45:29;17.03;80.83
69503;SHT31;56704;54.242;12.442;2022-08-21T03:47:59;17.03;80.90
69503;SHT31;56704;54.242;12.442;2022-08-21T03:50:27;17.02;80.98
69503;SHT31;56704;54.242;12.442;2022-08-21T03:52:55;16.97;81.23
69503;SHT31;56704;54.242;12.442;2022-08-21T03:55:22;16.89;81.49
69503;SHT31;56704;54.242;12.442;2022-08-21T03:57:50;16.81;81.52
69503;SHT31;56704;54.242;12.442;2022-08-21T04:00:17;16.75;81.80
69503;SHT31;56704;54.242;12.442;2022-08-21T04:02:44;16.70;82.10
69503;SHT31;56704;54.242;12.442;2022-08-21T04:05:14;16.65;82.31
69503;SHT31;56704;54.242;12.442;2022-08-21T04:07:52;16.59;82.61
69503;SHT31;56704;54.242;12.442;2022-08-21T04:10:19;16.55;82.98
69503;SHT31;56704;54.242;12.442;2022-08-21T04:12:45;16.51;83.02
69503;SHT31;56704;54.242;12.442;2022-08-21T04:15:13;16.49;83.34
69503;SHT31;56704;54.242;12.442;2022-08-21T04:17:40;16.46;83.54
69503;SHT31;56704;54.242;12.442;2022-08-21T04:20:07;16.46;83.55
69503;SHT31;56704;54.242;12.442;2022-08-21T04:22:34;16.49;83.78
69503;SHT31;56704;54.242;12.442;2022-08-21T04:25:00;16.51;83.74
69503;SHT31;56704;54.242;12.442;2022-08-21T04:27:27;16.56;83.75
69503;SHT31;56704;54.242;12.442;2022-08-21T04:29:53;16.58;83.85
69503;SHT31;56704;54.242;12.442;2022-08-21T04:32:23;16.60;83.88
69503;SHT31;56704;54.242;12.442;2022-08-21T04:34:49;16.65;83.81
69503;SHT31;56704;54.242;12.442;2022-08-21T04:37:16;16.69;83.66
69503;SHT31;56704;54.242;12.442;2022-08-21T04:39:43;16.70;83.60
69503;SHT31;56704;54.242;12.442;2022-08-21T04:42:09;16.73;83.58
69503;SHT31;56704;54.242;12.442;2022-08-21T04:44:36;16.72;83.63
69503;SHT31;56704;54.242;12.442;2022-08-21T04:47:02;16.75;83.54
69503;SHT31;56704;54.242;12.442;2022-08-21T04:49:30;16.75;83.65
69503;SHT31;56704;54.242;12.442;2022-08-21T04:51:59;16.75;83.51
69503;SHT31;56704;54.242;12.442;2022-08-21T04:54:26;16.79;83.54
69503;SHT31;56704;54.242;12.442;2022-08-21T04:56:55;16.80;83.50
69503;SHT31;56704;54.242;12.442;2022-08-21T04:59:25;16.84;83.40
69503;SHT31;56704;54.242;12.442;2022-08-21T05:01:53;16.86;83.41
69503;SHT31;56704;54.242;12.442;2022-08-21T05:04:25;16.93;83.45
69503;SHT31;56704;54.242;12.442;2022-08-21T05:06:55;16.97;83.32
69503;SHT31;56704;54.242;12.442;2022-08-21T05:09:24;17.00;83.19
69503;SHT31;56704;54.242;12.442;2022-08-21T05:11:51;17.03;83.10
69503;SHT31;56704;54.242;12.442;2022-08-21T05:14:18;17.10;83.02
69503;SHT31;56704;54.242;12.442;2022-08-21T05:16:45;17.11;82.88
69503;SHT31;56704;54.242;12.442;2022-08-21T05:19:12;17.18;82.77
69503;SHT31;56704;54.242;12.442;2022-08-21T05:21:42;17.24;82.56
69503;SHT31;56704;54.242;12.442;2022-08-21T05:24:11;17.28;82.36
69503;SHT31;56704;54.242;12.442;2022-08-21T05:26:38;17.32;82.20
69503;SHT31;56704;54.242;12.442;2022-08-21T05:29:05;17.37;81.96
69503;SHT31;56704;54.242;12.442;2022-08-21T05:31:32;17.41;81.86
69503;SHT31;56704;54.242;12.442;2022-08-21T05:33:58;17.45;81.46
69503;SHT31;56704;54.242;12.442;2022-08-21T05:36:25;17.52;81.37
69503;SHT31;56704;54.242;12.442;2022-08-21T05:38:51;17.57;81.29
69503;SHT31;56704;54.242;12.442;2022-08-21T05:41:19;17.58;81.08
69503;SHT31;56704;54.242;12.442;2022-08-21T05:43:46;17.64;81.00
69503;SHT31;56704;54.242;12.442;2022-08-21T05:46:13;17.69;80.63
69503;SHT31;56704;54.242;12.442;2022-08-21T05:48:39;17.71;80.56
69503;SHT31;56704;54.242;12.442;2022-08-21T05:51:08;17.75;80.43
69503;SHT31;56704;54.242;12.442;2022-08-21T05:53:35;17.79;80.24
69503;SHT31;56704;54.242;12.442;2022-08-21T05:56:03;17.82;80.09
69503;SHT31;56704;54.242;12.442;2022-08-21T05:58:32;17.83;79.84
69503;SHT31;56704;54.242;12.442;2022-08-21T06:01:00;17.88;79.53
69503;SHT31;56704;54.242;12.442;2022-08-21T06:03:32;17.88;79.43
69503;SHT31;56704;54.242;12.442;2022-08-21T06:05:59;17.92;79.53
69503;SHT31;56704;54.242;12.442;2022-08-21T06:08:26;17.93;79.20
69503;SHT31;56704;54.242;12.442;2022-08-21T06:10:54;17.95;79.00
69503;SHT31;56704;54.242;12.442;2022-08-21T06:13:22;17.98;78.66
69503;SHT31;56704;54.242;12.442;2022-08-21T06:16:00;18.00;78.73
69503;SHT31;56704;54.242;12.442;2022-08-21T06:18:27;18.05;78.48
69503;SHT31;56704;54.242;12.442;2022-08-21T06:20:53;18.08;78.26
69503;SHT31;56704;54.242;12.442;2022-08-21T06:23:20;18.16;77.99
69503;SHT31;56704;54.242;12.442;2022-08-21T06:25:46;18.25;77.55
69503;SHT31;56704;54.242;12.442;2022-08-21T06:28:13;18.27;77.07
69503;SHT31;56704;54.242;12.442;2022-08-21T06:30:40;18.33;76.89
69503;SHT31;56704;54.242;12.442;2022-08-21T06:33:08;18.36;76.90
69503;SHT31;56704;54.242;12.442;2022-08-21T06:35:35;18.46;76.76
69503;SHT31;56704;54.242;12.442;2022-08-21T06:38:02;18.60;75.62
69503;SHT31;56704;54.242;12.442;2022-08-21T06:40:29;18.74;75.04
69503;SHT31;56704;54.242;12.442;2022-08-21T06:42:56;18.87;74.88
69503;SHT31;56704;54.242;12.442;2022-08-21T06:45:23;18.99;73.56
69503;SHT31;56704;54.242;12.442;2022-08-21T06:47:50;19.12;73.58
69503;SHT31;56704;54.242;12.442;2022-08-21T06:50:18;19.20;73.19
69503;SHT31;56704;54.242;12.442;2022-08-21T06:52:45;19.28;73.25
69503;SHT31;56704;54.242;12.442;2022-08-21T06:55:12;19.38;72.25
69503;SHT31;56704;54.242;12.442;2022-08-21T06:57:38;19.40;72.13
69503;SHT31;56704;54.242;12.442;2022-08-21T07:00:06;19.53;72.12
69503;SHT31;56704;54.242;12.442;2022-08-21T07:02:34;19.62;71.11
69503;SHT31;56704;54.242;12.442;2022-08-21T07:05:02;19.74;71.30
69503;SHT31;56704;54.242;12.442;2022-08-21T07:07:30;19.93;72.02
69503;SHT31;56704;54.242;12.442;2022-08-21T07:09:56;20.10;70.65
69503;SHT31;56704;54.242;12.442;2022-08-21T07:12:23;20.24;70.72
69503;SHT31;56704;54.242;12.442;2022-08-21T07:14:51;20.32;70.27
69503;SHT31;56704;54.242;12.442;2022-08-21T07:17:17;20.38;69.37
69503;SHT31;56704;54.242;12.442;2022-08-21T07:19:44;20.44;70.30
69503;SHT31;56704;54.242;12.442;2022-08-21T07:22:11;20.56;70.29
69503;SHT31;56704;54.242;12.442;2022-08-21T07:24:39;20.51;70.02
69503;SHT31;56704;54.242;12.442;2022-08-21T07:27:06;20.56;70.30
69503;SHT31;56704;54.242;12.442;2022-08-21T07:29:32;20.55;69.66
69503;SHT31;56704;54.242;12.442;2022-08-21T07:31:59;20.56;69.45
69503;SHT31;56704;54.242;12.442;2022-08-21T07:34:25;20.61;69.96
69503;SHT31;56704;54.242;12.442;2022-08-21T07:36:52;20.69;69.77
69503;SHT31;56704;54.242;12.442;2022-08-21T07:39:18;20.77;69.10
69503;SHT31;56704;54.242;12.442;2022-08-21T07:41:46;20.95;69.41
69503;SHT31;56704;54.242;12.442;2022-08-21T07:44:13;21.06;67.88
69503;SHT31;56704;54.242;12.442;2022-08-21T07:46:39;21.14;67.58
69503;SHT31;56704;54.242;12.442;2022-08-21T07:49:06;21.30;68.00
69503;SHT31;56704;54.242;12.442;2022-08-21T07:51:33;21.50;67.83
69503;SHT31;56704;54.242;12.442;2022-08-21T07:54:00;21.65;66.83
69503;SHT31;56704;54.242;12.442;2022-08-21T07:56:27;21.73;65.98
69503;SHT31;56704;54.242;12.442;2022-08-21T07:58:55;21.89;66.06
69503;SHT31;56704;54.242;12.442;2022-08-21T08:01:24;21.92;65.82
69503;SHT31;56704;54.242;12.442;2022-08-21T08:03:50;22.01;65.60
69503;SHT31;56704;54.242;12.442;2022-08-21T08:06:17;22.05;63.25
69503;SHT31;56704;54.242;12.442;2022-08-21T08:08:45;22.06;64.19
69503;SHT31;56704;54.242;12.442;2022-08-21T08:11:12;22.15;62.93
69503;SHT31;56704;54.242;12.442;2022-08-21T08:13:41;22.29;62.62
69503;SHT31;56704;54.242;12.442;2022-08-21T08:16:09;22.49;63.24
69503;SHT31;56704;54.242;12.442;2022-08-21T08:18:36;22.40;61.26
69503;SHT31;56704;54.242;12.442;2022-08-21T08:21:03;22.37;59.43
69503;SHT31;56704;54.242;12.442;2022-08-21T08:23:30;22.12;58.63
69503;SHT31;56704;54.242;12.442;2022-08-21T08:25:57;22.16;60.63
69503;SHT31;56704;54.242;12.442;2022-08-21T08:28:24;22.42;62.37
69503;SHT31;56704;54.242;12.442;2022-08-21T08:30:52;22.59;57.19
69503;SHT31;56704;54.242;12.442;2022-08-21T08:33:20;22.66;58.40
69503;SHT31;56704;54.242;12.442;2022-08-21T08:35:49;22.76;56.18
69503;SHT31;56704;54.242;12.442;2022-08-21T08:38:17;22.80;55.29
69503;SHT31;56704;54.242;12.442;2022-08-21T08:40:48;22.73;56.42
69503;SHT31;56704;54.242;12.442;2022-08-21T08:43:18;22.64;55.45
69503;SHT31;56704;54.242;12.442;2022-08-21T08:45:47;22.74;55.86
69503;SHT31;56704;54.242;12.442;2022-08-21T08:48:19;22.98;56.05
69503;SHT31;56704;54.242;12.442;2022-08-21T08:50:56;23.29;52.22
69503;SHT31;56704;54.242;12.442;2022-08-21T08:53:27;23.32;51.89
69503;SHT31;56704;54.242;12.442;2022-08-21T08:55:55;23.44;52.21
69503;SHT31;56704;54.242;12.442;2022-08-21T08:58:25;23.41;50.83
69503;SHT31;56704;54.242;12.442;2022-08-21T09:00:56;23.24;51.76
69503;SHT31;56704;54.242;12.442;2022-08-21T09:03:23;23.41;52.96
69503;SHT31;56704;54.242;12.442;2022-08-21T09:05:58;23.73;52.39
69503;SHT31;56704;54.242;12.442;2022-08-21T09:08:42;23.85;50.89
69503;SHT31;56704;54.242;12.442;2022-08-21T09:11:21;24.02;50.36
69503;SHT31;56704;54.242;12.442;2022-08-21T09:13:53;24.10;48.43
69503;SHT31;56704;54.242;12.442;2022-08-21T09:16:28;24.17;49.40
69503;SHT31;56704;54.242;12.442;2022-08-21T09:19:04;24.14;50.70
69503;SHT31;56704;54.242;12.442;2022-08-21T09:21:41;24.09;50.22
69503;SHT31;56704;54.242;12.442;2022-08-21T09:24:21;24.02;50.30
69503;SHT31;56704;54.242;12.442;2022-08-21T09:26:54;24.20;51.95
69503;SHT31;56704;54.242;12.442;2022-08-21T09:29:25;24.27;50.45
69503;SHT31;56704;54.242;12.442;2022-08-21T09:31:54;24.33;48.78
69503;SHT31;56704;54.242;12.442;2022-08-21T09:34:25;24.28;49.15
69503;SHT31;56704;54.242;12.442;2022-08-21T09:36:53;24.47;51.00
69503;SHT31;56704;54.242;12.442;2022-08-21T09:39:24;24.64;49.26
69503;SHT31;56704;54.242;12.442;2022-08-21T09:41:55;24.85;49.41
69503;SHT31;56704;54.242;12.442;2022-08-21T09:44:25;24.88;50.67
69503;SHT31;56704;54.242;12.442;2022-08-21T09:46:53;24.95;48.72
69503;SHT31;56704;54.242;12.442;2022-08-21T09:49:27;24.99;50.38
69503;SHT31;56704;54.242;12.442;2022-08-21T09:51:56;25.05;49.00
69503;SHT31;56704;54.242;12.442;2022-08-21T09:54:29;25.12;48.68
69503;SHT31;56704;54.242;12.442;2022-08-21T09:56:57;25.03;48.79
69503;SHT31;56704;54.242;12.442;2022-08-21T09:59:44;25.26;49.13
69503;SHT31;56704;54.242;12.442;2022-08-21T10:02:25;25.53;49.62
69503;SHT31;56704;54.242;12.442;2022-08-21T10:04:54;25.47;46.28
69503;SHT31;56704;54.242;12.442;2022-08-21T10:07:25;25.29;47.46
69503;SHT31;56704;54.242;12.442;2022-08-21T10:09:59;25.27;46.99
69503;SHT31;56704;54.242;12.442;2022-08-21T10:12:33;25.36;48.31
69503;SHT31;56704;54.242;12.442;2022-08-21T10:15:12;25.22;46.72
69503;SHT31;56704;54.242;12.442;2022-08-21T10:17:46;25.22;48.44
69503;SHT31;56704;54.242;12.442;2022-08-21T10:20:20;25.50;48.73
69503;SHT31;56704;54.242;12.442;2022-08-21T10:23:03;25.51;48.84
69503;SHT31;56704;54.242;12.442;2022-08-21T10:25:36;25.70;47.22
69503;SHT31;56704;54.242;12.442;2022-08-21T10:28:10;25.78;47.84
69503;SHT31;56704;54.242;12.442;2022-08-21T10:30:46;25.84;47.27
69503;SHT31;56704;54.242;12.442;2022-08-21T10:33:23;26.09;47.66
69503;SHT31;56704;54.242;12.442;2022-08-21T10:35:59;26.04;46.54
69503;SHT31;56704;54.242;12.442;2022-08-21T10:38:56;26.00;47.77
69503;SHT31;56704;54.242;12.442;2022-08-21T10:41:32;26.18;47.00
69503;SHT31;56704;54.242;12.442;2022-08-21T10:44:14;26.22;46.84
69503;SHT31;56704;54.242;12.442;2022-08-21T10:46:50;26.48;46.86
69503;SHT31;56704;54.242;12.442;2022-08-21T10:49:25;26.36;44.88
69503;SHT31;56704;54.242;12.442;2022-08-21T10:52:07;26.33;45.55
69503;SHT31;56704;54.242;12.442;2022-08-21T10:54:44;26.36;46.46
69503;SHT31;56704;54.242;12.442;2022-08-21T10:57:17;26.48;45.35
69503;SHT31;56704;54.242;12.442;2022-08-21T10:59:49;26.55;46.76
69503;SHT31;56704;54.242;12.442;2022-08-21T11:02:23;26.78;45.24
69503;SHT31;56704;54.242;12.442;2022-08-21T11:04:56;26.79;44.29
69503;SHT31;56704;54.242;12.442;2022-08-21T11:07:29;26.72;43.86
69503;SHT31;56704;54.242;12.442;2022-08-21T11:10:03;26.94;45.53
69503;SHT31;56704;54.242;12.442;2022-08-21T11:12:35;27.11;45.45
69503;SHT31;56704;54.242;12.442;2022-08-21T11:15:23;27.35;44.33
69503;SHT31;56704;54.242;12.442;2022-08-21T11:17:54;27.52;43.62
69503;SHT31;56704;54.242;12.442;2022-08-21T11:20:32;27.63;44.21
69503;SHT31;56704;54.242;12.442;2022-08-21T11:23:04;27.65;44.28
69503;SHT31;56704;54.242;12.442;2022-08-21T11:25:37;27.29;43.84
69503;SHT31;56704;54.242;12.442;2022-08-21T11:28:10;27.08;43.12
69503;SHT31;56704;54.242;12.442;2022-08-21T11:30:45;26.86;45.02
69503;SHT31;56704;54.242;12.442;2022-08-21T11:33:26;27.07;44.73
69503;SHT31;56704;54.242;12.442;2022-08-21T11:36:02;27.18;44.80
69503;SHT31;56704;54.242;12.442;2022-08-21T11:38:41;27.24;45.67
69503;SHT31;56704;54.242;12.442;2022-08-21T11:41:24;27.17;46.02
69503;SHT31;56704;54.242;12.442;2022-08-21T11:44:02;27.14;44.06
69503;SHT31;56704;54.242;12.442;2022-08-21T11:46:36;27.34;42.76
69503;SHT31;56704;54.242;12.442;2022-08-21T11:49:15;27.51;42.77
69503;SHT31;56704;54.242;12.442;2022-08-21T11:51:48;27.59;43.88
69503;SHT31;56704;54.242;12.442;2022-08-21T11:54:24;27.54;43.47
69503;SHT31;56704;54.242;12.442;2022-08-21T11:56:55;27.77;44.55
69503;SHT31;56704;54.242;12.442;2022-08-21T11:59:32;28.09;43.03
69503;SHT31;56704;54.242;12.442;2022-08-21T12:02:07;28.10;42.88
69503;SHT31;56704;54.242;12.442;2022-08-21T12:04:44;27.82;41.42
69503;SHT31;56704;54.242;12.442;2022-08-21T12:07:13;27.58;42.69
69503;SHT31;56704;54.242;12.442;2022-08-21T12:09:52;27.72;44.26
69503;SHT31;56704;54.242;12.442;2022-08-21T12:12:26;27.99;42.68
69503;SHT31;56704;54.242;12.442;2022-08-21T12:15:11;28.01;41.93
69503;SHT31;56704;54.242;12.442;2022-08-21T12:17:50;28.43;42.15
69503;SHT31;56704;54.242;12.442;2022-08-21T12:20:22;28.56;41.13
69503;SHT31;56704;54.242;12.442;2022-08-21T12:22:53;28.40;40.45
69503;SHT31;56704;54.242;12.442;2022-08-21T12:25:20;28.26;41.98
69503;SHT31;56704;54.242;12.442;2022-08-21T12:27:51;28.09;40.64
69503;SHT31;56704;54.242;12.442;2022-08-21T12:30:22;27.82;43.06
69503;SHT31;56704;54.242;12.442;2022-08-21T12:32:56;27.66;42.62
69503;SHT31;56704;54.242;12.442;2022-08-21T12:35:26;27.62;42.28
69503;SHT31;56704;54.242;12.442;2022-08-21T12:38:01;27.72;43.04
69503;SHT31;56704;54.242;12.442;2022-08-21T12:40:31;27.72;42.22
69503;SHT31;56704;54.242;12.442;2022-08-21T12:43:01;27.92;42.26
69503;SHT31;56704;54.242;12.442;2022-08-21T12:45:31;28.03;42.10
69503;SHT31;56704;54.242;12.442;2022-08-21T12:48:01;28.14;42.81
69503;SHT31;56704;54.242;12.442;2022-08-21T12:50:35;28.09;41.17
69503;SHT31;56704;54.242;12.442;2022-08-21T12:53:05;28.26;41.19
69503;SHT31;56704;54.242;12.442;2022-08-21T12:55:34;28.41;40.70
69503;SHT31;56704;54.242;12.442;2022-08-21T12:58:05;28.41;40.85
69503;SHT31;56704;54.242;12.442;2022-08-21T13:00:32;28.47;39.33
69503;SHT31;56704;54.242;12.442;2022-08-21T13:03:00;28.32;40.64
69503;SHT31;56704;54.242;12.442;2022-08-21T13:05:32;28.23;40.36
69503;SHT31;56704;54.242;12.442;2022-08-21T13:08:03;28.47;40.37
69503;SHT31;56704;54.242;12.442;2022-08-21T13:10:32;28.65;39.41
69503;SHT31;56704;54.242;12.442;2022-08-21T13:13:04;28.75;39.12
69503;SHT31;56704;54.242;12.442;2022-08-21T13:15:34;28.86;38.18
69503;SHT31;56704;54.242;12.442;2022-08-21T13:18:02;28.84;40.64
69503;SHT31;56704;54.242;12.442;2022-08-21T13:20:31;28.97;39.52
69503;SHT31;56704;54.242;12.442;2022-08-21T13:23:00;28.95;38.38
69503;SHT31;56704;54.242;12.442;2022-08-21T13:25:29;28.95;38.45
69503;SHT31;56704;54.242;12.442;2022-08-21T13:28:07;29.08;39.48
69503;SHT31;56704;54.242;12.442;2022-08-21T13:30:42;29.01;37.38
69503;SHT31;56704;54.242;12.442;2022-08-21T13:33:10;28.90;40.88
69503;SHT31;56704;54.242;12.442;2022-08-21T13:35:47;28.77;38.28
69503;SHT31;56704;54.242;12.442;2022-08-21T13:38:14;28.95;40.00
69503;SHT31;56704;54.242;12.442;2022-08-21T13:40:46;28.75;39.01
69503;SHT31;56704;54.242;12.442;2022-08-21T13:43:17;28.82;39.46
69503;SHT31;56704;54.242;12.442;2022-08-21T13:45:48;29.00;38.57
69503;SHT31;56704;54.242;12.442;2022-08-21T13:48:15;29.14;39.07
69503;SHT31;56704;54.242;12.442;2022-08-21T13:50:42;29.16;37.24
69503;SHT31;56704;54.242;12.442;2022-08-21T13:53:21;28.97;37.82
69503;SHT31;56704;54.242;12.442;2022-08-21T13:55:47;28.86;37.57
69503;SHT31;56704;54.242;12.442;2022-08-21T13:58:24;28.92;40.01
69503;SHT31;56704;54.242;12.442;2022-08-21T14:00:53;29.08;37.90
69503;SHT31;56704;54.242;12.442;2022-08-21T14:03:31;29.15;38.26
69503;SHT31;56704;54.242;12.442;2022-08-21T14:05:58;29.28;37.82
69503;SHT31;56704;54.242;12.442;2022-08-21T14:08:29;29.32;37.98
69503;SHT31;56704;54.242;12.442;2022-08-21T14:10:58;29.21;38.18
69503;SHT31;56704;54.242;12.442;2022-08-21T14:13:38;29.02;36.77
69503;SHT31;56704;54.242;12.442;2022-08-21T14:16:14;29.07;38.07
69503;SHT31;56704;54.242;12.442;2022-08-21T14:18:47;28.92;38.27
69503;SHT31;56704;54.242;12.442;2022-08-21T14:21:24;29.05;37.02
69503;SHT31;56704;54.242;12.442;2022-08-21T14:24:03;28.98;37.54
69503;SHT31;56704;54.242;12.442;2022-08-21T14:26:29;29.14;37.21
69503;SHT31;56704;54.242;12.442;2022-08-21T14:28:58;29.25;37.30
69503;SHT31;56704;54.242;12.442;2022-08-21T14:31:30;29.25;36.18
69503;SHT31;56704;54.242;12.442;2022-08-21T14:33:58;29.35;36.36
69503;SHT31;56704;54.242;12.442;2022-08-21T14:36:25;29.43;35.97
69503;SHT31;56704;54.242;12.442;2022-08-21T14:38:52;29.39;37.06
69503;SHT31;56704;54.242;12.442;2022-08-21T14:41:21;29.36;37.26
69503;SHT31;56704;54.242;12.442;2022-08-21T14:43:49;29.58;36.43
69503;SHT31;56704;54.242;12.442;2022-08-21T14:46:21;29.63;36.57
69503;SHT31;56704;54.242;12.442;2022-08-21T14:48:49;29.63;36.84
69503;SHT31;56704;54.242;12.442;2022-08-21T14:51:16;29.72;37.41
69503;SHT31;56704;54.242;12.442;2022-08-21T14:53:43;29.53;37.76
69503;SHT31;56704;54.242;12.442;2022-08-21T14:56:11;29.74;35.53
69503;SHT31;56704;54.242;12.442;2022-08-21T14:58:40;29.55;35.91
69503;SHT31;56704;54.242;12.442;2022-08-21T15:01:08;29.38;36.87
69503;SHT31;56704;54.242;12.442;2022-08-21T15:03:35;29.35;37.39
69503;SHT31;56704;54.242;12.442;2022-08-21T15:06:05;29.31;35.44
69503;SHT31;56704;54.242;12.442;2022-08-21T15:08:32;29.12;36.36
69503;SHT31;56704;54.242;12.442;2022-08-21T15:11:00;28.90;37.15
69503;SHT31;56704;54.242;12.442;2022-08-21T15:13:27;28.86;36.43
69503;SHT31;56704;54.242;12.442;2022-08-21T15:15:54;28.88;38.13
69503;SHT31;56704;54.242;12.442;2022-08-21T15:18:24;28.97;35.90
69503;SHT31;56704;54.242;12.442;2022-08-21T15:20:51;28.91;38.16
69503;SHT31;56704;54.242;12.442;2022-08-21T15:23:19;29.05;38.59
69503;SHT31;56704;54.242;12.442;2022-08-21T15:25:48;29.09;38.17
69503;SHT31;56704;54.242;12.442;2022-08-21T15:28:16;29.18;37.87
69503;SHT31;56704;54.242;12.442;2022-08-21T15:30:44;29.14;35.81